TFM - Tactical Decision Aid (Experimental) INFO Settings
 
 

ID: Runway Winds: CIG/VIS Threshold: METAR Board: Map:

KDFW - Dallas/Fort Worth Intl

Updated at: 2328 UTC 16 Sep 2014
Latest TAF at: 2057 UTC 16 Sep 2014

TAF Board

Time2253Z17/00Z17/01Z17/02Z17/03Z17/04Z17/05Z17/06Z17/07Z17/08Z17/09Z17/10Z17/11Z17/12Z
TypeOBSPRVLPRVLPRVLPRVLPRVLPRVLPRVLPRVLPRVLPRVLPRVLPRVLPRVL
VIS10>6>6>6>6>6>6>6>6>6>6>6>6>6
CIG140250250250250250250250250250250250250250
CoverBKNBKNBKNBKNBKNBKNBKNBKNBKNBKNBKNBKNBKNBKN
FltCat--VFRVFRVFRVFRVFRVFRVFRVFRVFRVFRVFRVFRVFR
WX--VCSH------------------------
WDir100130140140140140140140140140140140140140
WSpd54444444444444
WGst----------------------------
TAF
KDFW 162057Z 1621/1724 13004KT P6SM VCSH SCT050 BKN250
  FM170100 14004KT P6SM BKN250


METAR
KDFW 162253Z 10005KT 10SM FEW055 BKN140 BKN240 32/18 A2997 RMK AO2 SLP140 T03220183

TAF/METAR Board Legend

Potential Impact
  None Marginal Slight Moderate High
Visibility (sm) >5 3≤X≤5 1≤X<3 0.5≤X<1 <0.5
Ceiling (100 ft) >30 10≤X≤30 4≤X<10 2≤X<4 <2
Wind Speed (kt) <10 10≤X<20 20≤X<30 ≥30
Wind Gust (kt) <15 15≤X<25 25≤X<35 ≥35
Weather No Wx Reported VCTS -TS,-FZRA TS,FZRA +TS,+FZRA